sensor_id;sensor_type;location;lat;lon;timestamp;temperature;humidity
15115;DHT22;7658;51.456;7.622;2022-10-13T00:01:55;6.60;99.90
15115;DHT22;7658;51.456;7.622;2022-10-13T00:04:21;6.60;99.90
15115;DHT22;7658;51.456;7.622;2022-10-13T00:06:47;6.50;99.90
15115;DHT22;7658;51.456;7.622;2022-10-13T00:09:12;6.60;99.90
15115;DHT22;7658;51.456;7.622;2022-10-13T00:11:38;6.60;99.90
15115;DHT22;7658;51.456;7.622;2022-10-13T00:14:04;6.60;99.90
15115;DHT22;7658;51.456;7.622;2022-10-13T00:16:31;6.70;99.90
15115;DHT22;7658;51.456;7.622;2022-10-13T00:18:57;6.70;99.90
15115;DHT22;7658;51.456;7.622;2022-10-13T00:21:25;6.80;99.90
15115;DHT22;7658;51.456;7.622;2022-10-13T00:23:52;6.70;99.90
15115;DHT22;7658;51.456;7.622;2022-10-13T00:26:19;6.70;99.90
15115;DHT22;7658;51.456;7.622;2022-10-13T00:28:45;6.70;99.90
15115;DHT22;7658;51.456;7.622;2022-10-13T00:31:17;6.80;99.90
15115;DHT22;7658;51.456;7.622;2022-10-13T00:33:43;6.80;99.90
15115;DHT22;7658;51.456;7.622;2022-10-13T00:36:09;6.70;99.90
15115;DHT22;7658;51.456;7.622;2022-10-13T00:38:34;6.80;99.90
15115;DHT22;7658;51.456;7.622;2022-10-13T00:41:00;6.80;99.90
15115;DHT22;7658;51.456;7.622;2022-10-13T00:46:12;6.90;99.90
15115;DHT22;7658;51.456;7.622;2022-10-13T00:48:38;6.90;99.90
15115;DHT22;7658;51.456;7.622;2022-10-13T00:51:04;6.90;99.90
15115;DHT22;7658;51.456;7.622;2022-10-13T00:53:33;6.90;99.90
15115;DHT22;7658;51.456;7.622;2022-10-13T00:55:59;6.90;99.90
15115;DHT22;7658;51.456;7.622;2022-10-13T00:58:26;6.90;99.90
15115;DHT22;7658;51.456;7.622;2022-10-13T01:00:58;6.90;99.90
15115;DHT22;7658;51.456;7.622;2022-10-13T01:03:24;6.90;99.90
15115;DHT22;7658;51.456;7.622;2022-10-13T01:05:54;6.90;99.90
15115;DHT22;7658;51.456;7.622;2022-10-13T01:08:22;6.90;99.90
15115;DHT22;7658;51.456;7.622;2022-10-13T01:16:34;7.00;99.90
15115;DHT22;7658;51.456;7.622;2022-10-13T01:30:36;6.80;99.90
15115;DHT22;7658;51.456;7.622;2022-10-13T01:39:20;6.80;99.90
15115;DHT22;7658;51.456;7.622;2022-10-13T01:41:52;6.90;99.90
15115;DHT22;7658;51.456;7.622;2022-10-13T01:44:28;6.90;99.90
15115;DHT22;7658;51.456;7.622;2022-10-13T01:46:55;6.90;99.90
15115;DHT22;7658;51.456;7.622;2022-10-13T01:49:25;6.90;99.90
15115;DHT22;7658;51.456;7.622;2022-10-13T01:51:54;6.90;99.90
15115;DHT22;7658;51.456;7.622;2022-10-13T01:54:20;6.90;99.90
15115;DHT22;7658;51.456;7.622;2022-10-13T01:56:54;7.00;99.90
15115;DHT22;7658;51.456;7.622;2022-10-13T01:59:20;7.00;99.90
15115;DHT22;7658;51.456;7.622;2022-10-13T02:01:51;7.00;99.90
15115;DHT22;7658;51.456;7.622;2022-10-13T02:15:44;6.90;99.90
15115;DHT22;7658;51.456;7.622;2022-10-13T02:18:13;6.90;99.90
15115;DHT22;7658;51.456;7.622;2022-10-13T02:20:40;6.90;99.90
15115;DHT22;7658;51.456;7.622;2022-10-13T02:23:10;6.80;99.90
15115;DHT22;7658;51.456;7.622;2022-10-13T02:25:37;6.80;99.90
15115;DHT22;7658;51.456;7.622;2022-10-13T02:28:04;6.80;99.90
15115;DHT22;7658;51.456;7.622;2022-10-13T02:30:31;6.80;99.90
15115;DHT22;7658;51.456;7.622;2022-10-13T02:32:59;6.80;99.90
15115;DHT22;7658;51.456;7.622;2022-10-13T02:35:24;6.80;99.90
15115;DHT22;7658;51.456;7.622;2022-10-13T02:37:50;6.80;99.90
15115;DHT22;7658;51.456;7.622;2022-10-13T02:40:16;6.80;99.90
15115;DHT22;7658;51.456;7.622;2022-10-13T02:42:42;6.80;99.90
15115;DHT22;7658;51.456;7.622;2022-10-13T02:45:08;6.80;99.90
15115;DHT22;7658;51.456;7.622;2022-10-13T02:47:34;6.80;99.90
15115;DHT22;7658;51.456;7.622;2022-10-13T02:50:00;6.80;99.90
15115;DHT22;7658;51.456;7.622;2022-10-13T02:52:26;6.80;99.90
15115;DHT22;7658;51.456;7.622;2022-10-13T02:54:52;6.80;99.90
15115;DHT22;7658;51.456;7.622;2022-10-13T02:57:18;6.90;99.90
15115;DHT22;7658;51.456;7.622;2022-10-13T02:59:44;6.90;99.90
15115;DHT22;7658;51.456;7.622;2022-10-13T03:02:09;6.90;99.90
15115;DHT22;7658;51.456;7.622;2022-10-13T03:04:35;7.00;99.90
15115;DHT22;7658;51.456;7.622;2022-10-13T03:07:01;7.00;99.90
15115;DHT22;7658;51.456;7.622;2022-10-13T03:09:27;7.00;99.90
15115;DHT22;7658;51.456;7.622;2022-10-13T03:11:53;7.00;99.90
15115;DHT22;7658;51.456;7.622;2022-10-13T03:14:19;7.00;99.90
15115;DHT22;7658;51.456;7.622;2022-10-13T03:16:44;7.10;99.90
15115;DHT22;7658;51.456;7.622;2022-10-13T03:19:10;7.10;99.90
15115;DHT22;7658;51.456;7.622;2022-10-13T03:21:37;7.10;99.90
15115;DHT22;7658;51.456;7.622;2022-10-13T03:24:03;7.10;99.90
15115;DHT22;7658;51.456;7.622;2022-10-13T03:26:32;7.20;99.90
15115;DHT22;7658;51.456;7.622;2022-10-13T03:28:58;7.20;99.90
15115;DHT22;7658;51.456;7.622;2022-10-13T03:31:24;7.20;99.90
15115;DHT22;7658;51.456;7.622;2022-10-13T03:33:50;7.20;99.90
15115;DHT22;7658;51.456;7.622;2022-10-13T03:36:16;7.20;99.90
15115;DHT22;7658;51.456;7.622;2022-10-13T03:38:42;7.20;99.90
15115;DHT22;7658;51.456;7.622;2022-10-13T03:41:10;7.20;99.90
15115;DHT22;7658;51.456;7.622;2022-10-13T03:43:37;7.20;99.90
15115;DHT22;7658;51.456;7.622;2022-10-13T03:46:04;7.30;99.90
15115;DHT22;7658;51.456;7.622;2022-10-13T03:48:31;7.30;99.90
15115;DHT22;7658;51.456;7.622;2022-10-13T03:50:58;7.30;99.90
15115;DHT22;7658;51.456;7.622;2022-10-13T03:53:24;7.30;99.90
15115;DHT22;7658;51.456;7.622;2022-10-13T03:55:54;7.30;99.90
15115;DHT22;7658;51.456;7.622;2022-10-13T03:58:21;7.40;99.90
15115;DHT22;7658;51.456;7.622;2022-10-13T04:00:49;7.40;99.90
15115;DHT22;7658;51.456;7.622;2022-10-13T04:03:15;7.40;99.90
15115;DHT22;7658;51.456;7.622;2022-10-13T04:05:41;7.40;99.90
15115;DHT22;7658;51.456;7.622;2022-10-13T04:08:07;7.40;99.90
15115;DHT22;7658;51.456;7.622;2022-10-13T04:10:33;7.40;99.90
15115;DHT22;7658;51.456;7.622;2022-10-13T04:12:59;7.40;99.90
15115;DHT22;7658;51.456;7.622;2022-10-13T04:15:25;7.40;99.90
15115;DHT22;7658;51.456;7.622;2022-10-13T04:17:51;7.40;99.90
15115;DHT22;7658;51.456;7.622;2022-10-13T04:20:17;7.40;99.90
15115;DHT22;7658;51.456;7.622;2022-10-13T04:22:43;7.40;99.90
15115;DHT22;7658;51.456;7.622;2022-10-13T04:25:09;7.40;99.90
15115;DHT22;7658;51.456;7.622;2022-10-13T04:27:34;7.40;99.90
15115;DHT22;7658;51.456;7.622;2022-10-13T04:30:04;7.40;99.90
15115;DHT22;7658;51.456;7.622;2022-10-13T04:32:30;7.40;99.90
15115;DHT22;7658;51.456;7.622;2022-10-13T04:34:56;7.40;99.90
15115;DHT22;7658;51.456;7.622;2022-10-13T04:37:22;7.40;99.90
15115;DHT22;7658;51.456;7.622;2022-10-13T04:39:48;7.50;99.90
15115;DHT22;7658;51.456;7.622;2022-10-13T04:42:14;7.50;99.90
15115;DHT22;7658;51.456;7.622;2022-10-13T04:44:40;7.50;99.90
15115;DHT22;7658;51.456;7.622;2022-10-13T04:47:06;7.50;99.90
15115;DHT22;7658;51.456;7.622;2022-10-13T04:49:32;7.50;99.90
15115;DHT22;7658;51.456;7.622;2022-10-13T04:51:58;7.50;99.90
15115;DHT22;7658;51.456;7.622;2022-10-13T04:54:24;7.50;99.90
15115;DHT22;7658;51.456;7.622;2022-10-13T04:56:49;7.50;99.90
15115;DHT22;7658;51.456;7.622;2022-10-13T04:59:15;7.50;99.90
15115;DHT22;7658;51.456;7.622;2022-10-13T05:01:41;7.50;99.90
15115;DHT22;7658;51.456;7.622;2022-10-13T05:04:08;7.50;99.90
15115;DHT22;7658;51.456;7.622;2022-10-13T05:06:36;7.50;99.90
15115;DHT22;7658;51.456;7.622;2022-10-13T05:09:02;7.50;99.90
15115;DHT22;7658;51.456;7.622;2022-10-13T05:11:29;7.50;99.90
15115;DHT22;7658;51.456;7.622;2022-10-13T05:13:55;7.50;99.90
15115;DHT22;7658;51.456;7.622;2022-10-13T05:16:22;7.40;99.90
15115;DHT22;7658;51.456;7.622;2022-10-13T05:18:49;7.40;99.90
15115;DHT22;7658;51.456;7.622;2022-10-13T05:21:21;7.40;99.90
15115;DHT22;7658;51.456;7.622;2022-10-13T05:23:47;7.40;99.90
15115;DHT22;7658;51.456;7.622;2022-10-13T05:26:15;7.40;99.90
15115;DHT22;7658;51.456;7.622;2022-10-13T05:28:42;7.40;99.90
15115;DHT22;7658;51.456;7.622;2022-10-13T05:31:16;7.40;99.90
15115;DHT22;7658;51.456;7.622;2022-10-13T05:33:44;7.40;99.90
15115;DHT22;7658;51.456;7.622;2022-10-13T05:36:13;7.50;99.90
15115;DHT22;7658;51.456;7.622;2022-10-13T05:38:39;7.40;99.90
15115;DHT22;7658;51.456;7.622;2022-10-13T05:41:07;7.40;99.90
15115;DHT22;7658;51.456;7.622;2022-10-13T05:43:33;7.40;99.90
15115;DHT22;7658;51.456;7.622;2022-10-13T05:45:59;7.40;99.90
15115;DHT22;7658;51.456;7.622;2022-10-13T05:48:26;7.40;99.90
15115;DHT22;7658;51.456;7.622;2022-10-13T05:50:53;7.40;99.90
15115;DHT22;7658;51.456;7.622;2022-10-13T05:53:22;7.50;99.90
15115;DHT22;7658;51.456;7.622;2022-10-13T05:55:48;7.50;99.90
15115;DHT22;7658;51.456;7.622;2022-10-13T05:58:15;7.50;99.90
15115;DHT22;7658;51.456;7.622;2022-10-13T06:00:42;7.50;99.90
15115;DHT22;7658;51.456;7.622;2022-10-13T06:03:14;7.50;99.90
15115;DHT22;7658;51.456;7.622;2022-10-13T06:05:41;7.50;99.90
15115;DHT22;7658;51.456;7.622;2022-10-13T06:08:09;7.50;99.90
15115;DHT22;7658;51.456;7.622;2022-10-13T06:10:38;7.60;99.90
15115;DHT22;7658;51.456;7.622;2022-10-13T06:13:04;7.60;99.90
15115;DHT22;7658;51.456;7.622;2022-10-13T06:15:29;7.60;99.90
15115;DHT22;7658;51.456;7.622;2022-10-13T06:17:55;7.60;99.90
15115;DHT22;7658;51.456;7.622;2022-10-13T06:20:21;7.60;99.90
15115;DHT22;7658;51.456;7.622;2022-10-13T06:22:47;7.70;99.90
15115;DHT22;7658;51.456;7.622;2022-10-13T06:25:14;7.70;99.90
15115;DHT22;7658;51.456;7.622;2022-10-13T06:27:40;7.80;99.90
15115;DHT22;7658;51.456;7.622;2022-10-13T06:30:06;7.80;99.90
15115;DHT22;7658;51.456;7.622;2022-10-13T06:32:32;7.80;99.90
15115;DHT22;7658;51.456;7.622;2022-10-13T06:34:58;7.80;99.90
15115;DHT22;7658;51.456;7.622;2022-10-13T06:37:24;7.90;99.90
15115;DHT22;7658;51.456;7.622;2022-10-13T06:39:50;7.90;99.90
15115;DHT22;7658;51.456;7.622;2022-10-13T06:42:15;7.90;99.90
15115;DHT22;7658;51.456;7.622;2022-10-13T06:44:41;8.00;99.90
15115;DHT22;7658;51.456;7.622;2022-10-13T06:47:07;8.00;99.90
15115;DHT22;7658;51.456;7.622;2022-10-13T06:49:33;8.00;99.90
15115;DHT22;7658;51.456;7.622;2022-10-13T06:51:58;8.00;99.90
15115;DHT22;7658;51.456;7.622;2022-10-13T06:54:24;8.10;99.90
15115;DHT22;7658;51.456;7.622;2022-10-13T06:56:50;8.10;99.90
15115;DHT22;7658;51.456;7.622;2022-10-13T06:59:16;8.10;99.90
15115;DHT22;7658;51.456;7.622;2022-10-13T07:01:42;8.20;99.90
15115;DHT22;7658;51.456;7.622;2022-10-13T07:04:08;8.20;99.90
15115;DHT22;7658;51.456;7.622;2022-10-13T07:06:34;8.30;99.90
15115;DHT22;7658;51.456;7.622;2022-10-13T07:09:04;8.30;99.90
15115;DHT22;7658;51.456;7.622;2022-10-13T07:11:31;8.30;99.90
15115;DHT22;7658;51.456;7.622;2022-10-13T07:13:56;8.40;99.90
15115;DHT22;7658;51.456;7.622;2022-10-13T07:16:22;8.40;99.90
15115;DHT22;7658;51.456;7.622;2022-10-13T07:18:48;8.50;99.90
15115;DHT22;7658;51.456;7.622;2022-10-13T07:21:14;8.60;99.90
15115;DHT22;7658;51.456;7.622;2022-10-13T07:23:40;8.70;99.90
15115;DHT22;7658;51.456;7.622;2022-10-13T07:26:08;8.70;99.90
15115;DHT22;7658;51.456;7.622;2022-10-13T07:28:34;8.80;99.90
15115;DHT22;7658;51.456;7.622;2022-10-13T07:30:59;8.90;99.90
15115;DHT22;7658;51.456;7.622;2022-10-13T07:33:26;8.90;99.90
15115;DHT22;7658;51.456;7.622;2022-10-13T07:35:51;8.90;99.90
15115;DHT22;7658;51.456;7.622;2022-10-13T07:38:17;9.00;99.90
15115;DHT22;7658;51.456;7.622;2022-10-13T07:40:43;9.10;99.90
15115;DHT22;7658;51.456;7.622;2022-10-13T07:43:08;9.20;99.90
15115;DHT22;7658;51.456;7.622;2022-10-13T07:45:34;9.30;99.90
15115;DHT22;7658;51.456;7.622;2022-10-13T07:48:00;9.40;99.90
15115;DHT22;7658;51.456;7.622;2022-10-13T07:50:26;9.50;99.90
15115;DHT22;7658;51.456;7.622;2022-10-13T07:52:51;9.60;99.90
15115;DHT22;7658;51.456;7.622;2022-10-13T07:55:17;9.80;99.90
15115;DHT22;7658;51.456;7.622;2022-10-13T07:57:43;10.00;99.90
15115;DHT22;7658;51.456;7.622;2022-10-13T08:00:09;10.20;99.90
15115;DHT22;7658;51.456;7.622;2022-10-13T08:02:35;10.40;99.90
15115;DHT22;7658;51.456;7.622;2022-10-13T08:05:02;10.70;99.90
15115;DHT22;7658;51.456;7.622;2022-10-13T08:07:28;10.90;99.90
15115;DHT22;7658;51.456;7.622;2022-10-13T08:09:54;11.20;99.90
15115;DHT22;7658;51.456;7.622;2022-10-13T08:12:20;11.40;99.90
15115;DHT22;7658;51.456;7.622;2022-10-13T08:14:49;11.50;99.90
15115;DHT22;7658;51.456;7.622;2022-10-13T08:17:15;11.70;99.90
15115;DHT22;7658;51.456;7.622;2022-10-13T08:19:41;11.80;99.90
15115;DHT22;7658;51.456;7.622;2022-10-13T08:22:09;11.90;99.90
15115;DHT22;7658;51.456;7.622;2022-10-13T08:24:34;12.00;99.90
15115;DHT22;7658;51.456;7.622;2022-10-13T08:27:00;12.10;99.90
15115;DHT22;7658;51.456;7.622;2022-10-13T08:29:26;12.20;99.90
15115;DHT22;7658;51.456;7.622;2022-10-13T08:31:53;12.20;99.90
15115;DHT22;7658;51.456;7.622;2022-10-13T08:34:21;12.20;99.90
15115;DHT22;7658;51.456;7.622;2022-10-13T08:36:47;12.30;99.90
15115;DHT22;7658;51.456;7.622;2022-10-13T08:39:17;12.30;99.90
15115;DHT22;7658;51.456;7.622;2022-10-13T08:41:43;12.40;99.90
15115;DHT22;7658;51.456;7.622;2022-10-13T08:44:20;12.50;99.90
15115;DHT22;7658;51.456;7.622;2022-10-13T08:49:57;12.70;99.90
15115;DHT22;7658;51.456;7.622;2022-10-13T08:52:26;12.70;99.90
15115;DHT22;7658;51.456;7.622;2022-10-13T08:54:53;12.80;99.90
15115;DHT22;7658;51.456;7.622;2022-10-13T08:57:20;12.90;99.90
15115;DHT22;7658;51.456;7.622;2022-10-13T08:59:47;13.10;99.90
15115;DHT22;7658;51.456;7.622;2022-10-13T09:02:25;13.20;99.90
15115;DHT22;7658;51.456;7.622;2022-10-13T09:04:54;13.40;99.90
15115;DHT22;7658;51.456;7.622;2022-10-13T09:07:27;13.60;99.90
15115;DHT22;7658;51.456;7.622;2022-10-13T09:09:54;13.80;99.90
15115;DHT22;7658;51.456;7.622;2022-10-13T09:12:25;14.00;99.90
15115;DHT22;7658;51.456;7.622;2022-10-13T09:17:33;14.20;99.90
15115;DHT22;7658;51.456;7.622;2022-10-13T09:22:36;14.60;99.90
15115;DHT22;7658;51.456;7.622;2022-10-13T09:25:20;14.70;99.90
15115;DHT22;7658;51.456;7.622;2022-10-13T09:27:56;14.70;99.90
15115;DHT22;7658;51.456;7.622;2022-10-13T09:30:33;14.80;99.90
15115;DHT22;7658;51.456;7.622;2022-10-13T09:35:39;15.00;99.90
15115;DHT22;7658;51.456;7.622;2022-10-13T09:38:15;15.00;99.90
15115;DHT22;7658;51.456;7.622;2022-10-13T09:40:43;14.90;99.90
15115;DHT22;7658;51.456;7.622;2022-10-13T09:43:28;14.80;99.90
15115;DHT22;7658;51.456;7.622;2022-10-13T09:45:56;14.80;99.90
15115;DHT22;7658;51.456;7.622;2022-10-13T09:48:28;14.70;99.90
15115;DHT22;7658;51.456;7.622;2022-10-13T09:50:56;14.70;99.90
15115;DHT22;7658;51.456;7.622;2022-10-13T09:55:48;14.90;99.90
15115;DHT22;7658;51.456;7.622;2022-10-13T09:58:27;15.10;99.90
15115;DHT22;7658;51.456;7.622;2022-10-13T10:00:54;15.20;99.90
15115;DHT22;7658;51.456;7.622;2022-10-13T10:03:26;15.30;99.90
15115;DHT22;7658;51.456;7.622;2022-10-13T10:05:56;15.40;99.90
15115;DHT22;7658;51.456;7.622;2022-10-13T10:13:54;15.20;99.90
15115;DHT22;7658;51.456;7.622;2022-10-13T10:16:29;15.10;99.90
15115;DHT22;7658;51.456;7.622;2022-10-13T10:19:22;15.00;99.90
15115;DHT22;7658;51.456;7.622;2022-10-13T10:22:04;15.00;99.90
15115;DHT22;7658;51.456;7.622;2022-10-13T10:24:47;15.10;99.90
15115;DHT22;7658;51.456;7.622;2022-10-13T10:35:48;15.50;99.90
15115;DHT22;7658;51.456;7.622;2022-10-13T10:41:11;15.70;99.90
15115;DHT22;7658;51.456;7.622;2022-10-13T10:43:42;15.70;99.90
15115;DHT22;7658;51.456;7.622;2022-10-13T10:46:16;15.60;99.90
15115;DHT22;7658;51.456;7.622;2022-10-13T10:48:44;15.60;99.90
15115;DHT22;7658;51.456;7.622;2022-10-13T10:51:12;15.60;99.90
15115;DHT22;7658;51.456;7.622;2022-10-13T10:53:44;15.50;99.90
15115;DHT22;7658;51.456;7.622;2022-10-13T10:58:51;15.40;99.90
15115;DHT22;7658;51.456;7.622;2022-10-13T11:01:38;15.30;99.90
15115;DHT22;7658;51.456;7.622;2022-10-13T11:06:40;15.20;99.90
15115;DHT22;7658;51.456;7.622;2022-10-13T11:09:06;15.20;99.90
15115;DHT22;7658;51.456;7.622;2022-10-13T11:11:36;15.20;99.90
15115;DHT22;7658;51.456;7.622;2022-10-13T11:16:34;15.30;99.90
15115;DHT22;7658;51.456;7.622;2022-10-13T11:19:34;15.30;99.90
15115;DHT22;7658;51.456;7.622;2022-10-13T11:43:55;16.80;99.90
15115;DHT22;7658;51.456;7.622;2022-10-13T11:49:36;17.30;99.90
15115;DHT22;7658;51.456;7.622;2022-10-13T11:52:26;17.60;99.90
15115;DHT22;7658;51.456;7.622;2022-10-13T11:55:09;17.70;99.90
15115;DHT22;7658;51.456;7.622;2022-10-13T11:57:35;18.00;99.90
15115;DHT22;7658;51.456;7.622;2022-10-13T12:00:03;18.20;99.90
15115;DHT22;7658;51.456;7.622;2022-10-13T12:02:29;18.10;99.90
15115;DHT22;7658;51.456;7.622;2022-10-13T12:07:46;18.20;99.90
15115;DHT22;7658;51.456;7.622;2022-10-13T12:10:41;18.10;99.90
15115;DHT22;7658;51.456;7.622;2022-10-13T12:13:20;17.90;99.90
15115;DHT22;7658;51.456;7.622;2022-10-13T12:15:46;17.70;99.90
15115;DHT22;7658;51.456;7.622;2022-10-13T12:18:27;17.40;99.90
15115;DHT22;7658;51.456;7.622;2022-10-13T12:21:18;17.20;99.90
15115;DHT22;7658;51.456;7.622;2022-10-13T12:23:42;17.10;99.90
15115;DHT22;7658;51.456;7.622;2022-10-13T12:26:20;16.90;99.90
15115;DHT22;7658;51.456;7.622;2022-10-13T12:28:53;16.80;99.90
15115;DHT22;7658;51.456;7.622;2022-10-13T12:31:22;16.70;99.90
15115;DHT22;7658;51.456;7.622;2022-10-13T12:33:55;16.70;99.90
15115;DHT22;7658;51.456;7.622;2022-10-13T12:36:30;16.60;99.90
15115;DHT22;7658;51.456;7.622;2022-10-13T12:39:03;16.50;99.90
15115;DHT22;7658;51.456;7.622;2022-10-13T12:41:34;16.50;99.90
15115;DHT22;7658;51.456;7.622;2022-10-13T12:44:01;16.50;99.90
15115;DHT22;7658;51.456;7.622;2022-10-13T12:46:44;16.50;99.90
15115;DHT22;7658;51.456;7.622;2022-10-13T12:49:16;16.40;99.90
15115;DHT22;7658;51.456;7.622;2022-10-13T12:51:43;16.30;99.90
15115;DHT22;7658;51.456;7.622;2022-10-13T12:54:17;16.30;99.90
15115;DHT22;7658;51.456;7.622;2022-10-13T12:56:45;16.30;99.90
15115;DHT22;7658;51.456;7.622;2022-10-13T12:59:15;16.20;99.90
15115;DHT22;7658;51.456;7.622;2022-10-13T13:01:42;16.20;99.90
15115;DHT22;7658;51.456;7.622;2022-10-13T13:06:55;16.10;99.90
15115;DHT22;7658;51.456;7.622;2022-10-13T13:09:30;16.00;99.90
15115;DHT22;7658;51.456;7.622;2022-10-13T13:12:24;15.90;99.90
15115;DHT22;7658;51.456;7.622;2022-10-13T13:14:51;15.80;99.90
15115;DHT22;7658;51.456;7.622;2022-10-13T13:19:54;15.60;99.90
15115;DHT22;7658;51.456;7.622;2022-10-13T13:22:20;15.60;99.90
15115;DHT22;7658;51.456;7.622;2022-10-13T13:24:46;15.60;99.90
15115;DHT22;7658;51.456;7.622;2022-10-13T13:29:41;15.40;99.90
15115;DHT22;7658;51.456;7.622;2022-10-13T13:32:12;15.30;99.90
15115;DHT22;7658;51.456;7.622;2022-10-13T13:34:37;15.30;99.90
15115;DHT22;7658;51.456;7.622;2022-10-13T13:37:03;15.20;99.90
15115;DHT22;7658;51.456;7.622;2022-10-13T13:39:29;15.10;99.90
15115;DHT22;7658;51.456;7.622;2022-10-13T13:41:55;15.10;99.90
15115;DHT22;7658;51.456;7.622;2022-10-13T13:44:20;15.10;99.90
15115;DHT22;7658;51.456;7.622;2022-10-13T13:46:46;15.00;99.90
15115;DHT22;7658;51.456;7.622;2022-10-13T13:49:12;14.90;99.90
15115;DHT22;7658;51.456;7.622;2022-10-13T13:51:38;14.80;99.90
15115;DHT22;7658;51.456;7.622;2022-10-13T13:54:04;14.80;99.90
15115;DHT22;7658;51.456;7.622;2022-10-13T13:56:30;14.70;99.90
15115;DHT22;7658;51.456;7.622;2022-10-13T13:58:56;14.60;99.90
15115;DHT22;7658;51.456;7.622;2022-10-13T14:01:22;14.50;99.90
15115;DHT22;7658;51.456;7.622;2022-10-13T14:03:49;14.40;99.90
15115;DHT22;7658;51.456;7.622;2022-10-13T14:06:19;14.40;99.90
15115;DHT22;7658;51.456;7.622;2022-10-13T14:08:45;14.40;99.90
15115;DHT22;7658;51.456;7.622;2022-10-13T14:11:11;14.40;99.90
15115;DHT22;7658;51.456;7.622;2022-10-13T14:13:37;14.30;99.90
15115;DHT22;7658;51.456;7.622;2022-10-13T14:16:03;14.30;99.90
15115;DHT22;7658;51.456;7.622;2022-10-13T14:18:29;14.30;99.90
15115;DHT22;7658;51.456;7.622;2022-10-13T14:20:55;14.30;99.90
15115;DHT22;7658;51.456;7.622;2022-10-13T14:23:21;14.20;99.90
15115;DHT22;7658;51.456;7.622;2022-10-13T14:25:47;14.20;99.90
15115;DHT22;7658;51.456;7.622;2022-10-13T14:28:12;14.20;99.90
15115;DHT22;7658;51.456;7.622;2022-10-13T14:30:39;14.10;99.90
15115;DHT22;7658;51.456;7.622;2022-10-13T14:33:05;14.10;99.90
15115;DHT22;7658;51.456;7.622;2022-10-13T14:35:31;14.10;99.90
15115;DHT22;7658;51.456;7.622;2022-10-13T14:37:57;14.10;99.90
15115;DHT22;7658;51.456;7.622;2022-10-13T14:40:22;14.10;99.90
15115;DHT22;7658;51.456;7.622;2022-10-13T14:42:48;14.10;99.90
15115;DHT22;7658;51.456;7.622;2022-10-13T14:45:14;14.10;99.90
15115;DHT22;7658;51.456;7.622;2022-10-13T14:47:40;14.10;99.90
15115;DHT22;7658;51.456;7.622;2022-10-13T14:50:06;14.10;99.90
15115;DHT22;7658;51.456;7.622;2022-10-13T14:52:33;14.10;99.90
15115;DHT22;7658;51.456;7.622;2022-10-13T14:54:58;14.10;99.90
15115;DHT22;7658;51.456;7.622;2022-10-13T14:57:24;14.10;99.90
15115;DHT22;7658;51.456;7.622;2022-10-13T14:59:50;14.10;99.90
15115;DHT22;7658;51.456;7.622;2022-10-13T15:02:16;14.00;99.90
15115;DHT22;7658;51.456;7.622;2022-10-13T15:04:41;14.00;99.90
15115;DHT22;7658;51.456;7.622;2022-10-13T15:07:07;14.00;99.90
15115;DHT22;7658;51.456;7.622;2022-10-13T15:09:33;14.00;99.90
15115;DHT22;7658;51.456;7.622;2022-10-13T15:11:59;14.00;99.90
15115;DHT22;7658;51.456;7.622;2022-10-13T15:14:25;13.90;99.90
15115;DHT22;7658;51.456;7.622;2022-10-13T15:16:51;13.90;99.90
15115;DHT22;7658;51.456;7.622;2022-10-13T15:19:17;13.90;99.90
15115;DHT22;7658;51.456;7.622;2022-10-13T15:21:42;13.80;99.90
15115;DHT22;7658;51.456;7.622;2022-10-13T15:24:11;13.80;99.90
15115;DHT22;7658;51.456;7.622;2022-10-13T15:26:39;13.80;99.90
15115;DHT22;7658;51.456;7.622;2022-10-13T15:29:04;13.80;99.90
15115;DHT22;7658;51.456;7.622;2022-10-13T15:31:30;13.80;99.90
15115;DHT22;7658;51.456;7.622;2022-10-13T15:33:56;13.80;99.90
15115;DHT22;7658;51.456;7.622;2022-10-13T15:36:22;13.80;99.90
15115;DHT22;7658;51.456;7.622;2022-10-13T15:38:49;13.80;99.90
15115;DHT22;7658;51.456;7.622;2022-10-13T15:41:15;13.80;99.90
15115;DHT22;7658;51.456;7.622;2022-10-13T15:43:41;13.80;99.90
15115;DHT22;7658;51.456;7.622;2022-10-13T15:46:10;13.70;99.90
15115;DHT22;7658;51.456;7.622;2022-10-13T15:48:37;13.70;99.90
15115;DHT22;7658;51.456;7.622;2022-10-13T15:51:13;13.70;99.90
15115;DHT22;7658;51.456;7.622;2022-10-13T15:53:39;13.70;99.90
15115;DHT22;7658;51.456;7.622;2022-10-13T15:56:07;13.70;99.90
15115;DHT22;7658;51.456;7.622;2022-10-13T15:58:36;13.80;99.90
15115;DHT22;7658;51.456;7.622;2022-10-13T16:01:09;13.70;99.90
15115;DHT22;7658;51.456;7.622;2022-10-13T16:03:35;13.70;99.90
15115;DHT22;7658;51.456;7.622;2022-10-13T16:06:05;13.70;99.90
15115;DHT22;7658;51.456;7.622;2022-10-13T16:08:34;13.60;99.90
15115;DHT22;7658;51.456;7.622;2022-10-13T16:11:00;13.60;99.90
15115;DHT22;7658;51.456;7.622;2022-10-13T16:13:26;13.60;99.90
15115;DHT22;7658;51.456;7.622;2022-10-13T16:15:59;13.60;99.90
15115;DHT22;7658;51.456;7.622;2022-10-13T16:18:35;13.60;99.90
15115;DHT22;7658;51.456;7.622;2022-10-13T16:21:22;13.60;99.90
15115;DHT22;7658;51.456;7.622;2022-10-13T16:23:48;13.50;99.90
15115;DHT22;7658;51.456;7.622;2022-10-13T16:26:15;13.50;99.90
15115;DHT22;7658;51.456;7.622;2022-10-13T16:28:41;13.50;99.90
15115;DHT22;7658;51.456;7.622;2022-10-13T16:31:12;13.50;99.90
15115;DHT22;7658;51.456;7.622;2022-10-13T16:33:39;13.40;99.90
15115;DHT22;7658;51.456;7.622;2022-10-13T16:36:07;13.40;99.90
15115;DHT22;7658;51.456;7.622;2022-10-13T16:38:33;13.40;99.90
15115;DHT22;7658;51.456;7.622;2022-10-13T16:41:06;13.40;99.90
15115;DHT22;7658;51.456;7.622;2022-10-13T16:43:33;13.30;99.90
15115;DHT22;7658;51.456;7.622;2022-10-13T16:46:00;13.30;99.90
15115;DHT22;7658;51.456;7.622;2022-10-13T16:48:29;13.30;99.90
15115;DHT22;7658;51.456;7.622;2022-10-13T16:50:55;13.30;99.90
15115;DHT22;7658;51.456;7.622;2022-10-13T16:53:21;13.20;99.90
15115;DHT22;7658;51.456;7.622;2022-10-13T16:55:47;13.20;99.90
15115;DHT22;7658;51.456;7.622;2022-10-13T16:58:12;13.20;99.90
15115;DHT22;7658;51.456;7.622;2022-10-13T17:00:39;13.20;99.90
15115;DHT22;7658;51.456;7.622;2022-10-13T17:03:05;13.20;99.90
15115;DHT22;7658;51.456;7.622;2022-10-13T17:05:32;13.10;99.90
15115;DHT22;7658;51.456;7.622;2022-10-13T17:07:58;13.10;99.90
15115;DHT22;7658;51.456;7.622;2022-10-13T17:10:24;13.00;99.90
15115;DHT22;7658;51.456;7.622;2022-10-13T17:12:49;13.00;99.90
15115;DHT22;7658;51.456;7.622;2022-10-13T17:15:17;13.00;99.90
15115;DHT22;7658;51.456;7.622;2022-10-13T17:17:43;13.00;99.90
15115;DHT22;7658;51.456;7.622;2022-10-13T17:20:10;13.00;99.90
15115;DHT22;7658;51.456;7.622;2022-10-13T17:22:38;13.00;99.90
15115;DHT22;7658;51.456;7.622;2022-10-13T17:25:04;13.00;99.90
15115;DHT22;7658;51.456;7.622;2022-10-13T17:27:30;13.00;99.90
15115;DHT22;7658;51.456;7.622;2022-10-13T17:29:59;13.00;99.90
15115;DHT22;7658;51.456;7.622;2022-10-13T17:32:25;13.00;99.90
15115;DHT22;7658;51.456;7.622;2022-10-13T17:34:51;13.00;99.90
15115;DHT22;7658;51.456;7.622;2022-10-13T17:37:17;13.00;99.90
15115;DHT22;7658;51.456;7.622;2022-10-13T17:39:42;13.00;99.90
15115;DHT22;7658;51.456;7.622;2022-10-13T17:42:08;13.00;99.90
15115;DHT22;7658;51.456;7.622;2022-10-13T17:44:34;13.00;99.90
15115;DHT22;7658;51.456;7.622;2022-10-13T17:46:59;13.00;99.90
15115;DHT22;7658;51.456;7.622;2022-10-13T17:49:25;13.00;99.90